createdAt,value
2023-05-02T00:03:58.173Z,0.35
2023-05-02T00:08:59.993Z,0.32
2023-05-02T00:14:01.774Z,0.30
2023-05-02T00:19:03.507Z,0.40
2023-05-02T00:24:05.902Z,0.30
2023-05-02T00:29:08.360Z,0.40
2023-05-02T00:34:10.171Z,0.40
2023-05-02T00:39:11.962Z,0.30
2023-05-02T00:44:13.746Z,0.30
2023-05-02T00:49:15.451Z,0.40
2023-05-02T00:54:17.848Z,0.30
2023-05-02T00:59:20.097Z,0.40
2023-05-02T01:04:35.032Z,0.30
2023-05-02T01:09:45.919Z,0.30
2023-05-02T01:14:55.066Z,0.40
2023-05-02T01:19:59.631Z,0.35
2023-05-02T01:25:17.013Z,0.30
2023-05-02T01:30:21.425Z,0.30
2023-05-02T01:35:24.287Z,0.40
2023-05-02T01:40:26.629Z,0.30
2023-05-02T01:45:29.242Z,0.30
2023-05-02T01:50:31.526Z,0.40
2023-05-02T01:55:36.832Z,0.40
2023-05-02T02:00:40.765Z,0.38
2023-05-02T02:05:43.049Z,0.40
2023-05-02T02:10:49.882Z,0.40
2023-05-02T02:15:57.804Z,0.30
2023-05-02T02:21:01.047Z,0.40
2023-05-02T02:26:04.239Z,0.30
2023-05-02T02:31:06.311Z,0.40
2023-05-02T02:36:34.252Z,0.30
2023-05-02T02:42:13.903Z,0.40
2023-05-02T02:47:21.642Z,0.40
2023-05-02T02:52:49.331Z,0.30
2023-05-02T02:58:09.972Z,0.40
2023-05-02T03:03:14.294Z,0.40
2023-05-02T03:08:16.263Z,0.40
2023-05-02T03:13:18.000Z,0.35
2023-05-02T03:18:20.051Z,0.40
2023-05-02T03:23:21.813Z,0.40
2023-05-02T03:28:23.585Z,0.30
2023-05-02T03:33:25.560Z,0.30
2023-05-02T03:38:30.015Z,0.35
2023-05-02T03:43:31.793Z,0.40
2023-05-02T03:48:34.529Z,0.40
2023-05-02T03:53:36.606Z,0.30
2023-05-02T03:58:38.640Z,0.40
2023-05-02T04:03:40.429Z,0.40
2023-05-02T04:08:42.503Z,0.40
2023-05-02T04:13:44.372Z,0.40
2023-05-02T04:18:46.093Z,0.30
2023-05-02T04:23:47.831Z,0.40
2023-05-02T04:28:49.538Z,0.45
2023-05-02T04:33:51.276Z,0.40
2023-05-02T04:38:53.037Z,0.40
2023-05-02T04:43:54.790Z,0.40
2023-05-02T04:48:56.569Z,0.40
2023-05-02T04:53:58.278Z,0.40
2023-05-02T04:59:00.313Z,0.40
2023-05-02T05:04:02.136Z,0.40
2023-05-02T05:09:04.197Z,0.40
2023-05-02T05:14:06.070Z,0.40
2023-05-02T05:19:07.841Z,0.47
2023-05-02T05:24:09.589Z,0.40
2023-05-02T05:29:11.657Z,0.40
2023-05-02T05:34:14.372Z,0.40
2023-05-02T05:39:16.825Z,0.40
2023-05-02T05:44:19.695Z,0.50
2023-05-02T05:49:22.262Z,0.40
2023-05-02T05:54:24.078Z,0.45
2023-05-02T05:59:25.948Z,0.40
2023-05-02T06:04:27.692Z,0.40
2023-05-02T06:09:29.434Z,0.40
2023-05-02T06:14:31.383Z,0.50
2023-05-02T06:19:33.458Z,0.40
2023-05-02T06:24:35.192Z,0.50
2023-05-02T06:29:37.082Z,0.40
2023-05-02T06:34:38.884Z,0.40
2023-05-02T06:39:40.734Z,0.50
2023-05-02T06:44:42.462Z,0.50
2023-05-02T06:49:44.214Z,0.50
2023-05-02T06:54:46.261Z,0.50
2023-05-02T06:59:48.104Z,0.50
2023-05-02T07:04:49.952Z,0.40
2023-05-02T07:09:52.287Z,0.50
2023-05-02T07:14:54.409Z,0.50
2023-05-02T07:19:56.542Z,0.50
2023-05-02T07:24:59.588Z,0.50
2023-05-02T07:30:02.003Z,0.50
2023-05-02T07:35:04.271Z,0.50
2023-05-02T07:40:07.938Z,0.50
2023-05-02T07:45:10.558Z,0.50
2023-05-02T07:50:12.526Z,0.50
2023-05-02T07:55:15.191Z,0.50
2023-05-02T08:00:17.416Z,0.50
2023-05-02T08:05:19.248Z,0.50
2023-05-02T08:10:21.068Z,0.50
2023-05-02T08:15:22.812Z,0.60
2023-05-02T08:20:24.498Z,0.50
2023-05-02T08:25:26.304Z,0.60
2023-05-02T08:30:28.061Z,0.50
2023-05-02T08:35:33.012Z,0.50
2023-05-02T08:40:42.855Z,0.50
2023-05-02T08:45:45.683Z,0.40
2023-05-02T08:50:49.637Z,0.50
2023-05-02T08:55:51.841Z,0.50
2023-05-02T09:00:56.038Z,0.50
2023-05-02T09:06:04.063Z,0.50
2023-05-02T09:11:07.577Z,0.50
2023-05-02T09:16:24.385Z,0.60
2023-05-02T09:21:40.340Z,0.52
2023-05-02T09:26:42.124Z,0.60
2023-05-02T09:31:55.590Z,0.55
2023-05-02T09:36:58.734Z,0.50
2023-05-02T09:42:01.165Z,0.50
2023-05-02T09:47:03.104Z,0.50
2023-05-02T09:52:16.941Z,0.50
2023-05-02T09:57:19.214Z,0.50
2023-05-02T10:02:22.992Z,0.40
2023-05-02T10:07:26.149Z,0.50
2023-05-02T10:12:32.786Z,0.50
2023-05-02T10:17:43.733Z,0.45
2023-05-02T10:22:47.500Z,0.50
2023-05-02T10:27:49.550Z,0.43
2023-05-02T10:32:53.462Z,0.50
2023-05-02T10:37:56.150Z,0.60
2023-05-02T10:42:58.137Z,0.47
2023-05-02T10:48:20.832Z,0.50
2023-05-02T10:53:36.936Z,0.40
2023-05-02T10:58:38.905Z,0.50
2023-05-02T11:03:56.778Z,0.50
2023-05-02T11:09:16.416Z,0.50
2023-05-02T11:14:41.709Z,0.50
2023-05-02T11:19:43.385Z,0.50
2023-05-02T11:24:48.013Z,0.50
2023-05-02T11:29:56.905Z,0.40
2023-05-02T11:40:14.292Z,0.40
2023-05-02T11:45:16.733Z,0.45
2023-05-02T11:50:18.716Z,0.50
2023-05-02T11:55:20.541Z,0.40
2023-05-02T12:00:27.806Z,0.50
2023-05-02T12:05:30.617Z,0.40
2023-05-02T12:10:38.753Z,0.50
2023-05-02T12:15:40.932Z,0.50
2023-05-02T12:20:43.424Z,0.50
2023-05-02T12:25:45.346Z,0.43
2023-05-02T12:30:51.240Z,0.50
2023-05-02T12:35:54.009Z,0.50
2023-05-02T12:40:58.901Z,0.40
2023-05-02T12:46:10.502Z,0.50
2023-05-02T12:51:24.808Z,0.50
2023-05-02T12:56:32.233Z,0.47
2023-05-02T13:01:34.721Z,0.50
2023-05-02T13:06:38.284Z,0.50
2023-05-02T13:11:40.372Z,0.40
2023-05-02T13:16:42.264Z,0.40
2023-05-02T13:21:44.001Z,0.40
2023-05-02T13:26:46.496Z,0.40
2023-05-02T13:31:48.238Z,0.40
2023-05-02T13:36:49.955Z,0.40
2023-05-02T13:41:52.942Z,0.40
2023-05-02T13:46:54.822Z,0.40
2023-05-02T13:51:56.676Z,0.40
2023-05-02T13:56:58.513Z,0.40
2023-05-02T14:02:00.516Z,0.40
2023-05-02T14:07:02.406Z,0.38
2023-05-02T14:12:04.496Z,0.32
2023-05-02T14:17:06.446Z,0.40
2023-05-02T14:22:08.182Z,0.40
2023-05-02T14:27:13.065Z,0.40
2023-05-02T14:32:14.962Z,0.30
2023-05-02T14:37:16.688Z,0.40
2023-05-02T14:42:18.506Z,0.40
2023-05-02T14:47:20.995Z,0.40
2023-05-02T14:52:23.268Z,0.40
2023-05-02T14:57:25.078Z,0.40
2023-05-02T15:02:27.225Z,0.40
2023-05-02T15:07:29.304Z,0.40
2023-05-02T15:12:31.136Z,0.30
2023-05-02T15:17:32.853Z,0.40
2023-05-02T15:22:34.578Z,0.40
2023-05-02T15:27:36.447Z,0.40
2023-05-02T15:32:38.214Z,0.40
2023-05-02T15:37:39.988Z,0.32
2023-05-02T15:42:41.890Z,0.30
2023-05-02T15:47:43.633Z,0.40
2023-05-02T15:52:46.001Z,0.40
2023-05-02T15:57:47.809Z,0.32
2023-05-02T16:02:49.580Z,0.40
2023-05-02T16:07:51.763Z,0.40
2023-05-02T16:12:53.575Z,0.40
2023-05-02T16:17:55.532Z,0.30
2023-05-02T16:22:57.380Z,0.38
2023-05-02T16:27:59.530Z,0.38
2023-05-02T16:33:01.660Z,0.40
2023-05-02T16:38:04.130Z,0.40
2023-05-02T16:43:05.872Z,0.35
2023-05-02T16:48:07.970Z,0.40
2023-05-02T16:53:09.931Z,0.40
2023-05-02T16:58:11.690Z,0.30
2023-05-02T17:03:13.583Z,0.40
2023-05-02T17:08:17.096Z,0.40
2023-05-02T17:13:18.963Z,0.40
2023-05-02T17:18:21.925Z,0.40
2023-05-02T17:23:23.953Z,0.40
2023-05-02T17:28:25.890Z,0.40
2023-05-02T17:33:27.767Z,0.30
2023-05-02T17:38:29.597Z,0.30
2023-05-02T17:43:31.329Z,0.35
2023-05-02T17:48:33.053Z,0.32
2023-05-02T17:53:36.777Z,0.40
2023-05-02T17:58:38.703Z,0.30
2023-05-02T18:03:41.085Z,0.40
2023-05-02T18:08:43.937Z,0.40
2023-05-02T18:13:46.581Z,0.32
2023-05-02T18:18:48.310Z,0.40
2023-05-02T18:23:50.031Z,0.30
2023-05-02T18:28:55.077Z,0.40
2023-05-02T18:33:56.833Z,0.30
2023-05-02T18:39:00.255Z,0.30
2023-05-02T18:44:05.344Z,0.30
2023-05-02T18:49:09.168Z,0.22
2023-05-02T18:54:10.919Z,0.38
2023-05-02T18:59:12.864Z,0.30
2023-05-02T19:04:14.600Z,0.40
2023-05-02T19:09:18.079Z,0.30
2023-05-02T19:14:19.854Z,0.30
2023-05-02T19:19:21.618Z,0.30
2023-05-02T19:24:23.350Z,0.30
2023-05-02T19:29:25.064Z,0.30
2023-05-02T19:34:28.190Z,0.30
2023-05-02T19:39:30.067Z,0.40
2023-05-02T19:44:31.755Z,0.30
2023-05-02T19:49:33.722Z,0.40
2023-05-02T19:54:35.522Z,0.38
2023-05-02T19:59:37.278Z,0.22
2023-05-02T20:04:39.045Z,0.30
2023-05-02T20:09:40.845Z,0.25
2023-05-02T20:14:42.590Z,0.30
2023-05-02T20:19:45.370Z,0.30
2023-05-02T20:24:47.109Z,0.38
2023-05-02T20:29:49.268Z,0.30
2023-05-02T20:34:51.191Z,0.25
2023-05-02T20:39:53.993Z,0.30
2023-05-02T20:45:02.641Z,0.30
2023-05-02T20:50:05.012Z,0.40
2023-05-02T20:55:08.018Z,0.40
2023-05-02T21:00:13.719Z,0.30
2023-05-02T21:05:15.781Z,0.25
2023-05-02T21:10:17.939Z,0.30
2023-05-02T21:15:19.736Z,0.40
2023-05-02T21:20:21.701Z,0.30
2023-05-02T21:25:24.104Z,0.22
2023-05-02T21:30:25.910Z,0.30
2023-05-02T21:35:28.813Z,0.25
2023-05-02T21:40:31.913Z,0.22
2023-05-02T21:45:34.893Z,0.30
2023-05-02T21:50:40.435Z,0.30
2023-05-02T21:55:42.262Z,0.20
2023-05-02T22:00:43.984Z,0.30
2023-05-02T22:05:48.512Z,0.30
2023-05-02T22:10:50.557Z,0.30
2023-05-02T22:15:52.385Z,0.30
2023-05-02T22:20:55.452Z,0.30
2023-05-02T22:25:57.368Z,0.30
2023-05-02T22:30:59.118Z,0.30
2023-05-02T22:36:00.892Z,0.30
2023-05-02T22:41:03.148Z,0.30
2023-05-02T22:46:04.986Z,0.30
2023-05-02T22:51:06.832Z,0.30
2023-05-02T22:56:08.623Z,0.20
2023-05-02T23:01:11.447Z,0.30
2023-05-02T23:06:13.429Z,0.20
2023-05-02T23:11:15.415Z,0.30
2023-05-02T23:16:17.166Z,0.20
2023-05-02T23:21:18.925Z,0.30
2023-05-02T23:26:20.942Z,0.30
2023-05-02T23:31:22.877Z,0.30
2023-05-02T23:36:24.697Z,0.28
2023-05-02T23:41:26.882Z,0.30
2023-05-02T23:46:28.649Z,0.30
2023-05-02T23:51:31.881Z,0.20
2023-05-02T23:56:33.727Z,0.38
